createdAt,value
2019-01-23T00:00:45.903Z,14.68
2019-01-23T00:03:13.451Z,14.70
2019-01-23T00:05:41.012Z,15.50
2019-01-23T00:08:08.556Z,16.30
2019-01-23T00:10:36.409Z,14.70
2019-01-23T00:13:03.995Z,12.73
2019-01-23T00:15:31.532Z,16.03
2019-01-23T00:17:59.102Z,12.37
2019-01-23T00:20:26.659Z,14.63
2019-01-23T00:22:54.224Z,15.25
2019-01-23T00:25:21.770Z,14.75
2019-01-23T00:27:49.315Z,12.60
2019-01-23T00:30:17.885Z,14.15
2019-01-23T00:32:45.455Z,16.52
2019-01-23T00:35:13.035Z,14.75
2019-01-23T00:37:40.583Z,15.23
2019-01-23T00:40:08.898Z,16.92
2019-01-23T00:42:37.231Z,17.60
2019-01-23T00:45:04.781Z,16.62
2019-01-23T00:47:32.347Z,18.07
2019-01-23T00:49:59.915Z,17.05
2019-01-23T00:52:27.470Z,20.70
2019-01-23T00:54:55.055Z,20.83
2019-01-23T00:57:22.630Z,28.57
2019-01-23T00:59:50.175Z,21.92
2019-01-23T01:02:17.744Z,19.23
2019-01-23T01:04:45.295Z,26.67
2019-01-23T01:07:13.609Z,21.73
2019-01-23T01:09:41.191Z,17.15
2019-01-23T01:12:08.807Z,17.00
2019-01-23T01:14:36.350Z,18.00
2019-01-23T01:17:04.683Z,14.70
2019-01-23T01:19:32.229Z,17.55
2019-01-23T01:21:59.769Z,15.87
2019-01-23T01:24:27.343Z,16.90
2019-01-23T01:26:54.888Z,15.57
2019-01-23T01:29:22.468Z,16.23
2019-01-23T01:31:50.019Z,14.95
2019-01-23T01:34:18.581Z,14.20
2019-01-23T01:36:46.148Z,13.03
2019-01-23T01:39:13.723Z,17.80
2019-01-23T01:41:41.264Z,14.70
2019-01-23T01:44:08.847Z,14.30
2019-01-23T01:46:36.419Z,17.20
2019-01-23T01:49:03.961Z,12.23
2019-01-23T01:51:31.528Z,12.87
2019-01-23T01:53:59.844Z,16.55
2019-01-23T01:56:27.412Z,13.97
2019-01-23T01:58:54.996Z,12.68
2019-01-23T02:01:22.563Z,13.50
2019-01-23T02:03:50.144Z,13.13
2019-01-23T02:06:17.680Z,14.90
2019-01-23T02:08:45.256Z,12.32
2019-01-23T02:11:13.568Z,14.60
2019-01-23T02:13:41.139Z,14.80
2019-01-23T02:16:08.781Z,25.13
2019-01-23T02:18:36.355Z,16.93
2019-01-23T02:21:03.898Z,16.97
2019-01-23T04:07:29.737Z,12.70
2019-01-23T04:09:57.289Z,19.07
2019-01-23T04:12:24.868Z,14.60
2019-01-23T04:14:52.412Z,14.70
2019-01-23T04:17:19.964Z,13.80
2019-01-23T04:19:47.544Z,16.93
2019-01-23T04:22:15.099Z,14.97
2019-01-23T04:24:42.640Z,15.10
2019-01-23T04:27:10.212Z,13.40
2019-01-23T04:29:39.733Z,13.33
2019-01-23T04:32:06.148Z,18.20
2019-01-23T04:34:33.708Z,15.03
2019-01-23T04:37:01.277Z,14.67
2019-01-23T04:39:28.824Z,13.93
2019-01-23T04:41:56.382Z,14.13
2019-01-23T04:44:23.952Z,13.73
2019-01-23T04:46:51.492Z,20.10
2019-01-23T04:49:20.083Z,15.57
2019-01-23T04:51:48.291Z,15.50
2019-01-23T04:54:16.609Z,16.07
2019-01-23T04:56:44.187Z,19.30
2019-01-23T04:59:11.740Z,18.03
2019-01-23T05:01:39.309Z,15.13
2019-01-23T05:04:06.888Z,16.83
2019-01-23T05:06:34.440Z,21.03
2019-01-23T05:09:02.014Z,21.10
2019-01-23T05:11:29.580Z,19.57
2019-01-23T05:13:57.133Z,20.33
2019-01-23T05:16:24.724Z,20.67
2019-01-23T05:18:52.276Z,21.10
2019-01-23T05:21:19.912Z,18.93
2019-01-23T05:23:47.459Z,24.17
2019-01-23T05:26:15.008Z,20.10
2019-01-23T05:28:42.589Z,18.63
2019-01-23T05:31:10.140Z,22.20
2019-01-23T05:33:37.713Z,19.17
2019-01-23T05:36:05.265Z,20.20
2019-01-23T05:38:32.837Z,23.67
2019-01-23T05:41:00.380Z,19.70
2019-01-23T05:43:27.945Z,19.10
2019-01-23T05:45:55.524Z,22.57
2019-01-23T05:48:23.069Z,22.30
2019-01-23T05:50:51.612Z,24.70
2019-01-23T05:53:19.311Z,25.30
2019-01-23T05:55:46.900Z,22.80
2019-01-23T05:58:14.452Z,22.83
2019-01-23T06:00:41.991Z,21.90
2019-01-23T06:03:10.534Z,28.83
2019-01-23T06:05:38.084Z,27.03
2019-01-23T06:08:06.427Z,53.37
2019-01-23T06:10:33.980Z,31.77
2019-01-23T06:13:01.556Z,22.70
2019-01-23T06:15:29.120Z,21.73
2019-01-23T06:17:57.459Z,20.83
2019-01-23T06:22:58.848Z,20.43
2019-01-23T06:25:26.429Z,22.20
2019-01-23T06:27:53.994Z,28.13
2019-01-23T06:30:22.468Z,22.20
2019-01-23T06:32:51.836Z,22.33
2019-01-23T06:35:19.416Z,23.80
2019-01-23T06:37:47.000Z,18.77
2019-01-23T06:40:15.389Z,21.47
2019-01-23T06:42:42.940Z,21.37
2019-01-23T06:45:10.610Z,22.30
2019-01-23T06:47:38.167Z,19.37
2019-01-23T06:50:05.723Z,38.90
2019-01-23T06:52:33.300Z,20.03
2019-01-23T06:55:00.841Z,32.13
2019-01-23T06:57:28.414Z,21.80
2019-01-23T06:59:55.971Z,23.73
2019-01-23T07:02:23.548Z,20.47
2019-01-23T07:04:51.097Z,22.00
2019-01-23T07:07:18.639Z,25.00
2019-01-23T07:09:46.296Z,26.90
2019-01-23T07:12:13.879Z,18.93
2019-01-23T07:14:41.455Z,19.60
2019-01-23T07:17:09.000Z,21.70
2019-01-23T07:19:36.580Z,24.87
2019-01-23T07:22:04.128Z,23.53
2019-01-23T07:24:31.711Z,21.00
2019-01-23T07:26:59.267Z,19.27
2019-01-23T07:29:26.844Z,21.90
2019-01-23T07:31:54.404Z,18.00
2019-01-23T07:34:21.958Z,23.80
2019-01-23T07:36:49.540Z,21.90
2019-01-23T07:39:17.111Z,20.90
2019-01-23T07:41:44.660Z,26.60
2019-01-23T07:44:12.218Z,23.03
2019-01-23T07:46:39.804Z,20.10
2019-01-23T07:49:07.403Z,24.23
2019-01-23T07:51:34.972Z,16.20
2019-01-23T07:54:02.515Z,22.37
2019-01-23T07:56:30.088Z,18.67
2019-01-23T07:58:57.671Z,17.47
2019-01-23T08:01:25.216Z,18.57
2019-01-23T08:03:52.766Z,25.13
2019-01-23T08:06:20.345Z,25.63
2019-01-23T08:08:48.651Z,21.03
2019-01-23T08:11:17.975Z,17.57
2019-01-23T08:13:45.534Z,20.70
2019-01-23T08:16:13.116Z,24.10
2019-01-23T08:18:40.669Z,37.00
2019-01-23T08:21:08.245Z,52.77
2019-01-23T08:23:36.792Z,31.80
2019-01-23T08:26:04.369Z,24.70
2019-01-23T08:28:31.960Z,23.30
2019-01-23T08:30:59.507Z,25.70
2019-01-23T08:33:27.081Z,24.87
2019-01-23T08:35:54.633Z,26.90
2019-01-23T08:38:22.208Z,28.67
2019-01-23T08:40:49.777Z,63.40
2019-01-23T08:43:17.358Z,53.90
2019-01-23T08:45:44.914Z,29.43
2019-01-23T08:48:12.464Z,47.27
2019-01-23T08:50:40.039Z,70.73
2019-01-23T08:53:07.586Z,32.23
2019-01-23T08:55:35.161Z,34.33
2019-01-23T08:58:02.736Z,64.73
2019-01-23T09:00:30.293Z,61.37
2019-01-23T09:02:57.844Z,38.20
2019-01-23T09:05:25.415Z,29.80
2019-01-23T09:07:52.961Z,28.57
2019-01-23T09:10:21.224Z,29.07
2019-01-23T09:12:48.795Z,31.17
2019-01-23T09:15:16.354Z,40.23
2019-01-23T09:17:44.920Z,33.10
2019-01-23T09:20:13.656Z,35.22
2019-01-23T09:22:42.207Z,34.90
2019-01-23T09:25:09.756Z,37.10
2019-01-23T09:27:37.319Z,35.70
2019-01-23T09:33:18.757Z,30.98
2019-01-23T09:36:16.842Z,34.57
2019-01-23T09:38:57.072Z,31.43
2019-01-23T09:41:28.108Z,29.97
2019-01-23T09:44:17.541Z,28.63
2019-01-23T09:46:58.541Z,29.30
2019-01-23T09:49:26.112Z,23.30
2019-01-23T09:51:59.544Z,29.70
2019-01-23T09:54:27.144Z,30.53
2019-01-23T09:56:54.688Z,30.33
2019-01-23T09:59:22.228Z,33.87
2019-01-23T10:01:49.795Z,34.40
2019-01-23T10:04:17.347Z,29.73
2019-01-23T10:06:44.924Z,30.63
2019-01-23T10:09:12.467Z,34.80
2019-01-23T10:11:40.009Z,32.73
2019-01-23T10:14:07.584Z,32.37
2019-01-23T10:16:35.124Z,30.37
2019-01-23T10:19:02.696Z,33.17
2019-01-23T10:21:30.240Z,29.10
2019-01-23T10:23:57.784Z,30.90
2019-01-23T10:26:25.457Z,35.20
2019-01-23T10:28:53.000Z,35.57
2019-01-23T10:31:20.563Z,33.77
2019-01-23T10:33:48.105Z,31.63
2019-01-23T10:36:15.673Z,31.67
2019-01-23T10:38:43.248Z,28.90
2019-01-23T10:41:10.789Z,28.30
2019-01-23T10:43:38.332Z,32.60
2019-01-23T10:46:06.118Z,31.37
2019-01-23T10:48:37.965Z,33.60
2019-01-23T10:51:01.292Z,32.47
2019-01-23T10:53:29.637Z,34.60
2019-01-23T10:55:57.185Z,35.30
2019-01-23T10:58:24.759Z,31.17
2019-01-23T11:00:52.300Z,39.97
2019-01-23T11:03:19.848Z,38.77
2019-01-23T11:05:47.900Z,33.00
2019-01-23T11:08:15.455Z,33.13
2019-01-23T11:10:43.021Z,37.20
2019-01-23T11:13:10.576Z,34.43
2019-01-23T11:15:38.164Z,39.50
2019-01-23T11:18:05.736Z,32.50
2019-01-23T11:20:33.285Z,28.00
2019-01-23T11:23:00.873Z,30.20
2019-01-23T11:25:28.459Z,28.00
2019-01-23T11:27:56.034Z,30.43
2019-01-23T11:30:23.587Z,31.27
2019-01-23T11:32:51.160Z,31.17
2019-01-23T11:35:18.711Z,26.03
2019-01-23T11:37:46.281Z,36.20
2019-01-23T11:40:23.097Z,29.33
2019-01-23T11:42:50.648Z,28.77
2019-01-23T11:45:18.192Z,29.63
2019-01-23T11:47:45.762Z,33.60
2019-01-23T11:50:13.300Z,32.27
2019-01-23T11:52:40.863Z,26.23
2019-01-23T11:55:08.408Z,25.87
2019-01-23T11:57:36.992Z,25.70
2019-01-23T12:00:07.302Z,25.87
2019-01-23T12:02:34.848Z,24.83
2019-01-23T12:05:03.409Z,24.60
2019-01-23T12:07:30.952Z,32.60
2019-01-23T12:09:59.511Z,26.50
2019-01-23T12:12:27.824Z,28.63
2019-01-23T12:14:55.392Z,29.47
2019-01-23T12:17:22.936Z,20.97
2019-01-23T12:19:50.504Z,28.70
2019-01-23T12:22:18.083Z,41.63
2019-01-23T12:24:45.651Z,31.80
2019-01-23T12:27:13.197Z,40.97
2019-01-23T12:29:40.740Z,42.73
2019-01-23T12:32:08.308Z,42.10
2019-01-23T12:34:35.868Z,37.17
2019-01-23T12:37:03.435Z,40.97
2019-01-23T12:39:31.012Z,39.27
2019-01-23T12:41:58.560Z,43.73
2019-01-23T12:44:26.131Z,47.97
2019-01-23T12:46:53.708Z,41.70
2019-01-23T12:49:21.248Z,41.13
2019-01-23T12:51:49.583Z,42.20
2019-01-23T12:54:17.161Z,49.27
2019-01-23T12:56:44.702Z,49.50
2019-01-23T12:59:12.271Z,48.57
2019-01-23T13:01:42.086Z,52.97
2019-01-23T13:04:07.438Z,47.00
2019-01-23T13:06:34.980Z,49.83
2019-01-23T13:09:03.316Z,54.87
2019-01-23T13:11:30.863Z,49.20
2019-01-23T13:13:59.386Z,51.57
2019-01-23T13:16:26.931Z,52.63
2019-01-23T13:18:55.280Z,50.43
2019-01-23T13:21:22.848Z,59.00
2019-01-23T13:23:50.393Z,52.50
2019-01-23T13:26:17.961Z,55.60
2019-01-23T13:28:45.751Z,54.03
2019-01-23T13:31:15.084Z,51.30
2019-01-23T13:33:42.632Z,58.33
2019-01-23T13:36:10.217Z,57.97
2019-01-23T13:38:37.796Z,52.47
2019-01-23T13:41:05.336Z,63.90
2019-01-23T13:43:32.901Z,50.47
2019-01-23T13:46:00.448Z,60.63
2019-01-23T13:48:28.019Z,49.40
2019-01-23T13:50:55.584Z,55.30
2019-01-23T13:53:23.130Z,53.83
2019-01-23T13:55:50.700Z,49.70
2019-01-23T13:58:19.012Z,66.80
2019-01-23T14:00:46.588Z,51.27
2019-01-23T14:03:14.135Z,45.37
2019-01-23T14:05:41.720Z,47.23
2019-01-23T14:08:09.272Z,41.90
2019-01-23T14:10:36.870Z,49.80
2019-01-23T14:13:04.441Z,48.67
2019-01-23T14:15:37.385Z,52.97
2019-01-23T14:18:04.953Z,49.27
2019-01-23T14:20:32.500Z,47.93
2019-01-23T14:23:01.073Z,49.20
2019-01-23T14:25:28.630Z,44.17
2019-01-23T14:27:56.182Z,56.97
2019-01-23T14:30:24.573Z,47.30
2019-01-23T14:32:52.132Z,40.07
2019-01-23T14:35:19.717Z,41.20
2019-01-23T14:37:47.283Z,38.43
2019-01-23T14:40:15.115Z,47.77
2019-01-23T14:42:42.692Z,42.00
2019-01-23T14:45:10.244Z,40.17
2019-01-23T14:47:37.822Z,37.17
2019-01-23T14:50:06.944Z,38.10
2019-01-23T14:52:34.521Z,41.00
2019-01-23T14:55:02.077Z,32.23
2019-01-23T14:57:29.768Z,38.57
2019-01-23T14:59:57.344Z,42.20
2019-01-23T15:02:24.901Z,40.37
2019-01-23T15:04:52.485Z,47.40
2019-01-23T15:07:20.044Z,42.53
2019-01-23T15:09:47.614Z,40.53
2019-01-23T15:12:19.322Z,41.33
2019-01-23T15:14:48.257Z,48.53
2019-01-23T15:17:18.018Z,52.60
2019-01-23T15:19:46.678Z,48.23
2019-01-23T15:22:15.996Z,54.93
2019-01-23T15:24:44.131Z,47.33
2019-01-23T15:27:13.039Z,48.93
2019-01-23T15:29:40.590Z,46.23
2019-01-23T15:32:08.172Z,54.73
2019-01-23T15:34:35.728Z,53.10
2019-01-23T15:37:03.309Z,50.20
2019-01-23T15:39:31.878Z,63.57
2019-01-23T15:42:01.037Z,55.60
2019-01-23T15:44:29.889Z,64.67
2019-01-23T15:47:00.029Z,65.53
2019-01-23T15:49:29.841Z,70.30
2019-01-23T15:51:58.850Z,61.03
2019-01-23T15:54:28.473Z,66.13
2019-01-23T15:56:58.496Z,64.77
2019-01-23T15:59:27.818Z,66.67
2019-01-23T16:01:57.480Z,73.70
2019-01-23T16:04:26.563Z,61.70
2019-01-23T16:06:57.038Z,78.70
2019-01-23T16:09:26.417Z,67.80
2019-01-23T16:11:56.046Z,70.07
2019-01-23T16:14:25.828Z,72.57
2019-01-23T16:16:55.008Z,82.07
2019-01-23T16:19:24.407Z,90.13
2019-01-23T16:21:53.481Z,81.67
2019-01-23T16:24:22.993Z,88.07
2019-01-23T16:26:52.264Z,89.23
2019-01-23T16:29:21.193Z,85.27
2019-01-23T16:31:51.809Z,79.00
2019-01-23T16:34:21.998Z,80.20
2019-01-23T16:36:51.482Z,86.73
2019-01-23T16:39:20.560Z,106.67
2019-01-23T16:41:48.943Z,95.57
2019-01-23T16:44:19.484Z,88.20
2019-01-23T16:46:49.999Z,82.83
2019-01-23T16:49:19.805Z,86.13
2019-01-23T16:51:51.405Z,87.57
2019-01-23T16:54:17.643Z,94.73
2019-01-23T16:56:46.666Z,100.97
2019-01-23T16:59:17.046Z,87.47
2019-01-23T17:01:46.398Z,86.77
2019-01-23T17:04:15.850Z,93.10
2019-01-23T17:06:44.970Z,97.30
2019-01-23T17:09:15.330Z,106.00
2019-01-23T17:11:45.559Z,104.20
2019-01-23T17:14:14.196Z,98.97
2019-01-23T17:16:41.738Z,119.60
2019-01-23T17:19:09.312Z,101.77
2019-01-23T17:21:36.860Z,90.03
2019-01-23T17:24:04.444Z,118.30
2019-01-23T17:26:31.996Z,114.40
2019-01-23T17:29:00.084Z,105.30
2019-01-23T17:31:29.468Z,112.77
2019-01-23T17:33:57.189Z,118.60
2019-01-23T17:36:24.769Z,109.33
2019-01-23T17:38:52.312Z,111.47
2019-01-23T17:41:19.870Z,115.20
2019-01-23T17:43:47.453Z,116.70
2019-01-23T17:46:15.028Z,117.70
2019-01-23T17:48:43.372Z,118.60
2019-01-23T17:51:10.919Z,114.97
2019-01-23T17:53:38.467Z,109.57
2019-01-23T17:56:06.048Z,110.70
2019-01-23T17:58:33.596Z,113.93
2019-01-23T18:01:01.301Z,104.80
2019-01-23T18:03:29.628Z,120.97
2019-01-23T18:05:57.212Z,113.13
2019-01-23T18:08:24.800Z,111.90
2019-01-23T18:10:52.400Z,117.10
2019-01-23T18:13:19.972Z,112.07
2019-01-23T18:15:47.550Z,115.63
2019-01-23T18:18:15.095Z,100.37
2019-01-23T18:20:42.828Z,95.50
2019-01-23T18:23:10.404Z,108.60
2019-01-23T18:25:37.947Z,99.30
2019-01-23T18:28:05.520Z,98.80
2019-01-23T18:30:36.645Z,109.63
2019-01-23T18:33:04.228Z,94.17
2019-01-23T18:38:43.548Z,99.47
2019-01-23T18:41:18.384Z,106.57
2019-01-23T18:43:50.758Z,109.40
2019-01-23T18:49:44.900Z,101.30
2019-01-23T18:52:13.605Z,105.20
2019-01-23T18:54:41.416Z,100.13
2019-01-23T18:57:09.740Z,103.67
2019-01-23T18:59:37.421Z,101.63
2019-01-23T19:02:05.000Z,102.43
2019-01-23T19:04:32.562Z,114.87
2019-01-23T19:07:00.523Z,96.80
2019-01-23T19:09:28.116Z,104.10
2019-01-23T19:11:56.037Z,112.73
2019-01-23T19:14:24.489Z,96.40
2019-01-23T19:16:51.344Z,98.23
2019-01-23T19:19:19.319Z,96.03
2019-01-23T19:21:46.915Z,97.70
2019-01-23T19:24:14.489Z,105.73
2019-01-23T19:26:42.805Z,91.77
2019-01-23T19:29:10.377Z,98.57
2019-01-23T19:31:38.440Z,99.77
2019-01-23T19:34:06.038Z,98.70
2019-01-23T19:36:33.728Z,89.50
2019-01-23T19:39:01.296Z,102.23
2019-01-23T19:41:29.121Z,103.13
2019-01-23T19:43:57.468Z,90.30
2019-01-23T19:46:25.028Z,104.20
2019-01-23T19:48:52.597Z,95.43
2019-01-23T19:51:20.165Z,94.70
2019-01-23T19:53:47.716Z,92.27
2019-01-23T19:56:15.289Z,92.23
2019-01-23T19:58:42.842Z,88.50
2019-01-23T20:01:10.432Z,96.40
2019-01-23T20:03:37.988Z,93.30
2019-01-23T20:06:05.878Z,95.73
2019-01-23T20:08:33.452Z,99.60
2019-01-23T20:11:01.031Z,91.70
2019-01-23T20:13:28.620Z,101.57
2019-01-23T20:15:56.168Z,105.97
2019-01-23T20:18:23.746Z,104.30
2019-01-23T20:20:52.126Z,104.87
2019-01-23T20:23:19.889Z,104.63
2019-01-23T20:25:47.484Z,97.57
2019-01-23T20:28:15.071Z,108.77
2019-01-23T20:30:42.621Z,98.37
2019-01-23T20:33:10.182Z,107.17
2019-01-23T20:35:37.765Z,104.00
2019-01-23T20:38:06.077Z,99.10
2019-01-23T20:40:33.664Z,100.57
2019-01-23T20:43:01.220Z,104.97
2019-01-23T20:45:28.843Z,109.63
2019-01-23T20:47:56.396Z,100.43
2019-01-23T20:50:23.953Z,113.65
2019-01-23T20:52:52.508Z,104.00
2019-01-23T20:55:20.064Z,108.87
2019-01-23T20:57:47.961Z,100.17
2019-01-23T21:00:17.041Z,110.20
2019-01-23T21:02:44.619Z,105.43
2019-01-23T21:05:12.643Z,109.70
2019-01-23T21:07:40.247Z,108.20
2019-01-23T21:10:08.624Z,117.93
2019-01-23T21:12:36.173Z,115.43
2019-01-23T21:15:03.758Z,108.13
2019-01-23T21:17:31.309Z,94.20
2019-01-23T21:19:58.913Z,105.87
2019-01-23T21:22:26.501Z,94.33
2019-01-23T21:24:54.268Z,114.03
2019-01-23T21:27:21.879Z,92.90
2019-01-23T21:29:49.462Z,100.27
2019-01-23T21:32:17.068Z,106.50
2019-01-23T21:34:44.625Z,102.77
2019-01-23T21:37:12.209Z,91.75
2019-01-23T21:39:39.764Z,97.97
2019-01-23T21:42:07.343Z,97.70
2019-01-23T21:44:35.657Z,98.60
2019-01-23T21:47:03.235Z,98.77
2019-01-23T21:49:30.823Z,101.17
2019-01-23T21:51:58.385Z,106.97
2019-01-23T21:54:26.695Z,93.17
2019-01-23T21:56:54.276Z,101.43
2019-01-23T21:59:21.839Z,107.00
2019-01-23T22:01:49.443Z,115.00
2019-01-23T22:04:17.037Z,106.13
2019-01-23T22:06:44.668Z,117.47
2019-01-23T22:09:12.248Z,112.47
2019-01-23T22:11:43.466Z,109.17
2019-01-23T22:14:07.433Z,121.17
2019-01-23T22:16:35.014Z,109.47
2019-01-23T22:19:02.588Z,138.00
2019-01-23T22:21:30.140Z,120.53
2019-01-23T22:26:39.791Z,110.63
2019-01-23T22:29:07.478Z,104.50
2019-01-23T22:34:09.577Z,119.33
2019-01-23T22:36:37.132Z,113.50
2019-01-23T22:39:04.722Z,127.87
2019-01-23T22:41:32.276Z,107.40
2019-01-23T22:43:59.853Z,104.90
2019-01-23T22:46:27.400Z,112.90
2019-01-23T22:48:54.951Z,113.83
2019-01-23T22:51:22.531Z,132.97
2019-01-23T22:53:50.084Z,116.23
2019-01-23T22:56:17.664Z,120.90
2019-01-23T22:58:45.214Z,121.40
2019-01-23T23:01:12.876Z,108.37
2019-01-23T23:03:40.680Z,131.57
2019-01-23T23:06:08.264Z,114.57
2019-01-23T23:08:35.820Z,128.73
2019-01-23T23:11:03.374Z,133.37
2019-01-23T23:13:30.950Z,118.93
2019-01-23T23:15:58.506Z,124.57
2019-01-23T23:18:26.089Z,134.90
2019-01-23T23:20:53.635Z,123.67
2019-01-23T23:23:22.192Z,139.97
2019-01-23T23:25:49.771Z,123.03
2019-01-23T23:28:17.348Z,122.17
2019-01-23T23:30:44.905Z,127.07
2019-01-23T23:33:12.469Z,127.73
2019-01-23T23:35:40.056Z,139.73
2019-01-23T23:38:08.368Z,137.47
2019-01-23T23:40:35.948Z,137.67
2019-01-23T23:43:03.498Z,137.27
2019-01-23T23:45:31.080Z,115.50
2019-01-23T23:47:58.633Z,112.93
2019-01-23T23:50:26.211Z,118.87
2019-01-23T23:52:53.786Z,118.00
2019-01-23T23:55:22.109Z,146.53
2019-01-23T23:57:49.660Z,129.27
